sensor_id;sensor_type;location;lat;lon;timestamp;temperature;humidity
8043;DHT22;4064;48.132;11.366;2022-10-17T00:01:06;11.60;99.90
8043;DHT22;4064;48.132;11.366;2022-10-17T00:03:33;11.50;99.90
8043;DHT22;4064;48.132;11.366;2022-10-17T00:06:07;11.50;99.90
8043;DHT22;4064;48.132;11.366;2022-10-17T00:08:33;11.50;99.90
8043;DHT22;4064;48.132;11.366;2022-10-17T00:11:06;11.40;99.90
8043;DHT22;4064;48.132;11.366;2022-10-17T00:13:33;11.40;99.90
8043;DHT22;4064;48.132;11.366;2022-10-17T00:15:59;11.40;99.90
8043;DHT22;4064;48.132;11.366;2022-10-17T00:18:25;11.40;99.90
8043;DHT22;4064;48.132;11.366;2022-10-17T00:20:51;11.40;99.90
8043;DHT22;4064;48.132;11.366;2022-10-17T00:23:17;11.40;99.90
8043;DHT22;4064;48.132;11.366;2022-10-17T00:25:43;11.40;99.90
8043;DHT22;4064;48.132;11.366;2022-10-17T00:28:09;11.40;99.90
8043;DHT22;4064;48.132;11.366;2022-10-17T00:30:35;11.40;99.90
8043;DHT22;4064;48.132;11.366;2022-10-17T00:33:01;11.30;99.90
8043;DHT22;4064;48.132;11.366;2022-10-17T00:35:27;11.30;99.90
8043;DHT22;4064;48.132;11.366;2022-10-17T00:37:52;11.30;99.90
8043;DHT22;4064;48.132;11.366;2022-10-17T00:40:18;11.30;99.90
8043;DHT22;4064;48.132;11.366;2022-10-17T00:42:43;11.20;99.90
8043;DHT22;4064;48.132;11.366;2022-10-17T00:45:14;11.20;99.90
8043;DHT22;4064;48.132;11.366;2022-10-17T00:47:42;11.10;99.90
8043;DHT22;4064;48.132;11.366;2022-10-17T00:50:09;11.10;99.90
8043;DHT22;4064;48.132;11.366;2022-10-17T00:52:36;11.10;99.90
8043;DHT22;4064;48.132;11.366;2022-10-17T00:55:19;11.10;99.90
8043;DHT22;4064;48.132;11.366;2022-10-17T00:57:46;11.10;99.90
8043;DHT22;4064;48.132;11.366;2022-10-17T01:00:14;11.10;99.90
8043;DHT22;4064;48.132;11.366;2022-10-17T01:02:40;11.20;99.90
8043;DHT22;4064;48.132;11.366;2022-10-17T01:05:06;11.20;99.90
8043;DHT22;4064;48.132;11.366;2022-10-17T01:07:33;11.20;99.90
8043;DHT22;4064;48.132;11.366;2022-10-17T01:09:59;11.20;99.90
8043;DHT22;4064;48.132;11.366;2022-10-17T01:22:46;10.90;99.90
8043;DHT22;4064;48.132;11.366;2022-10-17T01:28:22;10.90;99.90
8043;DHT22;4064;48.132;11.366;2022-10-17T01:35:58;10.90;99.90
8043;DHT22;4064;48.132;11.366;2022-10-17T01:38:31;10.90;99.90
8043;DHT22;4064;48.132;11.366;2022-10-17T01:43:45;10.80;99.90
8043;DHT22;4064;48.132;11.366;2022-10-17T01:46:17;10.80;99.90
8043;DHT22;4064;48.132;11.366;2022-10-17T01:48:45;10.80;99.90
8043;DHT22;4064;48.132;11.366;2022-10-17T01:51:15;10.90;99.90
8043;DHT22;4064;48.132;11.366;2022-10-17T01:53:57;10.80;99.90
8043;DHT22;4064;48.132;11.366;2022-10-17T01:56:25;10.90;99.90
8043;DHT22;4064;48.132;11.366;2022-10-17T01:58:59;10.80;99.90
8043;DHT22;4064;48.132;11.366;2022-10-17T02:01:26;10.80;99.90
8043;DHT22;4064;48.132;11.366;2022-10-17T02:03:53;10.80;99.90
8043;DHT22;4064;48.132;11.366;2022-10-17T02:06:20;10.70;99.90
8043;DHT22;4064;48.132;11.366;2022-10-17T02:08:47;10.70;99.90
8043;DHT22;4064;48.132;11.366;2022-10-17T02:11:22;10.70;99.90
8043;DHT22;4064;48.132;11.366;2022-10-17T02:17:07;10.60;99.90
8043;DHT22;4064;48.132;11.366;2022-10-17T02:19:54;10.60;99.90
8043;DHT22;4064;48.132;11.366;2022-10-17T02:22:39;10.60;99.90
8043;DHT22;4064;48.132;11.366;2022-10-17T02:27:52;10.50;99.90
8043;DHT22;4064;48.132;11.366;2022-10-17T02:31:03;10.50;99.90
8043;DHT22;4064;48.132;11.366;2022-10-17T02:33:38;10.40;99.90
8043;DHT22;4064;48.132;11.366;2022-10-17T02:36:11;10.50;99.90
8043;DHT22;4064;48.132;11.366;2022-10-17T02:38:39;10.40;99.90
8043;DHT22;4064;48.132;11.366;2022-10-17T02:41:09;10.40;99.90
8043;DHT22;4064;48.132;11.366;2022-10-17T02:43:36;10.50;99.90
8043;DHT22;4064;48.132;11.366;2022-10-17T02:46:03;10.50;99.90
8043;DHT22;4064;48.132;11.366;2022-10-17T02:48:50;10.50;99.90
8043;DHT22;4064;48.132;11.366;2022-10-17T02:51:39;10.50;99.90
8043;DHT22;4064;48.132;11.366;2022-10-17T02:54:23;10.50;99.90
8043;DHT22;4064;48.132;11.366;2022-10-17T02:57:21;10.50;99.90
8043;DHT22;4064;48.132;11.366;2022-10-17T02:59:48;10.50;99.90
8043;DHT22;4064;48.132;11.366;2022-10-17T03:02:14;10.50;99.90
8043;DHT22;4064;48.132;11.366;2022-10-17T03:04:44;10.40;99.90
8043;DHT22;4064;48.132;11.366;2022-10-17T03:07:10;10.30;99.90
8043;DHT22;4064;48.132;11.366;2022-10-17T03:09:36;10.30;99.90
8043;DHT22;4064;48.132;11.366;2022-10-17T03:12:02;10.30;99.90
8043;DHT22;4064;48.132;11.366;2022-10-17T03:14:27;10.30;99.90
8043;DHT22;4064;48.132;11.366;2022-10-17T03:16:53;10.30;99.90
8043;DHT22;4064;48.132;11.366;2022-10-17T03:19:19;10.30;99.90
8043;DHT22;4064;48.132;11.366;2022-10-17T03:21:44;10.30;99.90
8043;DHT22;4064;48.132;11.366;2022-10-17T03:24:10;10.20;99.90
8043;DHT22;4064;48.132;11.366;2022-10-17T03:26:35;10.20;99.90
8043;DHT22;4064;48.132;11.366;2022-10-17T03:29:01;10.20;99.90
8043;DHT22;4064;48.132;11.366;2022-10-17T03:31:27;10.30;99.90
8043;DHT22;4064;48.132;11.366;2022-10-17T03:33:52;10.20;99.90
8043;DHT22;4064;48.132;11.366;2022-10-17T03:36:18;10.20;99.90
8043;DHT22;4064;48.132;11.366;2022-10-17T03:38:45;10.20;99.90
8043;DHT22;4064;48.132;11.366;2022-10-17T03:41:11;10.20;99.90
8043;DHT22;4064;48.132;11.366;2022-10-17T03:43:37;10.20;99.90
8043;DHT22;4064;48.132;11.366;2022-10-17T03:46:04;10.20;99.90
8043;DHT22;4064;48.132;11.366;2022-10-17T03:48:30;10.10;99.90
8043;DHT22;4064;48.132;11.366;2022-10-17T03:51:01;10.10;99.90
8043;DHT22;4064;48.132;11.366;2022-10-17T03:53:27;10.10;99.90
8043;DHT22;4064;48.132;11.366;2022-10-17T03:55:53;10.10;99.90
8043;DHT22;4064;48.132;11.366;2022-10-17T03:58:19;10.00;99.90
8043;DHT22;4064;48.132;11.366;2022-10-17T04:00:44;10.00;99.90
8043;DHT22;4064;48.132;11.366;2022-10-17T04:03:10;10.00;99.90
8043;DHT22;4064;48.132;11.366;2022-10-17T04:05:35;10.00;99.90
8043;DHT22;4064;48.132;11.366;2022-10-17T04:08:01;10.00;99.90
8043;DHT22;4064;48.132;11.366;2022-10-17T04:10:27;9.90;99.90
8043;DHT22;4064;48.132;11.366;2022-10-17T04:12:52;9.90;99.90
8043;DHT22;4064;48.132;11.366;2022-10-17T04:15:18;9.90;99.90
8043;DHT22;4064;48.132;11.366;2022-10-17T04:17:44;9.90;99.90
8043;DHT22;4064;48.132;11.366;2022-10-17T04:20:09;9.90;99.90
8043;DHT22;4064;48.132;11.366;2022-10-17T04:22:35;9.90;99.90
8043;DHT22;4064;48.132;11.366;2022-10-17T04:25:01;9.90;99.90
8043;DHT22;4064;48.132;11.366;2022-10-17T04:27:26;9.90;99.90
8043;DHT22;4064;48.132;11.366;2022-10-17T04:29:52;10.00;99.90
8043;DHT22;4064;48.132;11.366;2022-10-17T04:32:18;9.90;99.90
8043;DHT22;4064;48.132;11.366;2022-10-17T04:34:46;9.90;99.90
8043;DHT22;4064;48.132;11.366;2022-10-17T04:37:12;9.90;99.90
8043;DHT22;4064;48.132;11.366;2022-10-17T04:39:38;9.80;99.90
8043;DHT22;4064;48.132;11.366;2022-10-17T04:42:03;9.90;99.90
8043;DHT22;4064;48.132;11.366;2022-10-17T04:44:29;9.80;99.90
8043;DHT22;4064;48.132;11.366;2022-10-17T04:46:55;9.80;99.90
8043;DHT22;4064;48.132;11.366;2022-10-17T04:49:21;9.60;99.90
8043;DHT22;4064;48.132;11.366;2022-10-17T04:51:46;9.70;99.90
8043;DHT22;4064;48.132;11.366;2022-10-17T04:54:12;9.70;99.90
8043;DHT22;4064;48.132;11.366;2022-10-17T04:56:38;9.70;99.90
8043;DHT22;4064;48.132;11.366;2022-10-17T04:59:03;9.70;99.90
8043;DHT22;4064;48.132;11.366;2022-10-17T05:01:29;9.70;99.90
8043;DHT22;4064;48.132;11.366;2022-10-17T05:03:54;9.80;99.90
8043;DHT22;4064;48.132;11.366;2022-10-17T05:06:23;9.80;99.90
8043;DHT22;4064;48.132;11.366;2022-10-17T05:08:49;9.80;99.90
8043;DHT22;4064;48.132;11.366;2022-10-17T05:11:26;9.80;99.90
8043;DHT22;4064;48.132;11.366;2022-10-17T05:14:00;9.80;99.90
8043;DHT22;4064;48.132;11.366;2022-10-17T05:16:27;9.80;99.90
8043;DHT22;4064;48.132;11.366;2022-10-17T05:18:54;9.80;99.90
8043;DHT22;4064;48.132;11.366;2022-10-17T05:21:22;9.80;99.90
8043;DHT22;4064;48.132;11.366;2022-10-17T05:23:48;9.80;99.90
8043;DHT22;4064;48.132;11.366;2022-10-17T05:26:14;9.70;99.90
8043;DHT22;4064;48.132;11.366;2022-10-17T05:28:40;9.80;99.90
8043;DHT22;4064;48.132;11.366;2022-10-17T05:31:07;9.80;99.90
8043;DHT22;4064;48.132;11.366;2022-10-17T05:33:33;9.80;99.90
8043;DHT22;4064;48.132;11.366;2022-10-17T05:35:59;9.80;99.90
8043;DHT22;4064;48.132;11.366;2022-10-17T05:38:25;9.80;99.90
8043;DHT22;4064;48.132;11.366;2022-10-17T05:40:55;9.70;99.90
8043;DHT22;4064;48.132;11.366;2022-10-17T05:43:21;9.70;99.90
8043;DHT22;4064;48.132;11.366;2022-10-17T05:45:46;9.70;99.90
8043;DHT22;4064;48.132;11.366;2022-10-17T05:48:12;9.60;99.90
8043;DHT22;4064;48.132;11.366;2022-10-17T05:50:37;9.60;99.90
8043;DHT22;4064;48.132;11.366;2022-10-17T05:53:03;9.60;99.90
8043;DHT22;4064;48.132;11.366;2022-10-17T05:55:29;9.60;99.90
8043;DHT22;4064;48.132;11.366;2022-10-17T05:57:54;9.60;99.90
8043;DHT22;4064;48.132;11.366;2022-10-17T06:00:20;9.70;99.90
8043;DHT22;4064;48.132;11.366;2022-10-17T06:02:46;9.70;99.90
8043;DHT22;4064;48.132;11.366;2022-10-17T06:05:13;9.80;99.90
8043;DHT22;4064;48.132;11.366;2022-10-17T06:07:39;9.80;99.90
8043;DHT22;4064;48.132;11.366;2022-10-17T06:10:05;9.80;99.90
8043;DHT22;4064;48.132;11.366;2022-10-17T06:12:31;9.90;99.90
8043;DHT22;4064;48.132;11.366;2022-10-17T06:14:57;9.80;99.90
8043;DHT22;4064;48.132;11.366;2022-10-17T06:17:23;9.70;99.90
8043;DHT22;4064;48.132;11.366;2022-10-17T06:19:48;9.80;99.90
8043;DHT22;4064;48.132;11.366;2022-10-17T06:22:14;9.80;99.90
8043;DHT22;4064;48.132;11.366;2022-10-17T06:24:40;9.80;99.90
8043;DHT22;4064;48.132;11.366;2022-10-17T06:27:07;9.90;99.90
8043;DHT22;4064;48.132;11.366;2022-10-17T06:29:33;9.90;99.90
8043;DHT22;4064;48.132;11.366;2022-10-17T06:31:58;9.90;99.90
8043;DHT22;4064;48.132;11.366;2022-10-17T06:34:24;9.90;99.90
8043;DHT22;4064;48.132;11.366;2022-10-17T06:36:50;9.90;99.90
8043;DHT22;4064;48.132;11.366;2022-10-17T06:39:15;10.00;99.90
8043;DHT22;4064;48.132;11.366;2022-10-17T06:41:41;10.00;99.90
8043;DHT22;4064;48.132;11.366;2022-10-17T06:44:09;10.20;99.90
8043;DHT22;4064;48.132;11.366;2022-10-17T06:46:37;10.20;99.90
8043;DHT22;4064;48.132;11.366;2022-10-17T06:49:03;10.30;99.90
8043;DHT22;4064;48.132;11.366;2022-10-17T06:51:29;10.30;99.90
8043;DHT22;4064;48.132;11.366;2022-10-17T06:53:57;10.40;99.90
8043;DHT22;4064;48.132;11.366;2022-10-17T06:56:23;10.50;99.90
8043;DHT22;4064;48.132;11.366;2022-10-17T06:58:48;10.70;99.90
8043;DHT22;4064;48.132;11.366;2022-10-17T07:01:15;10.90;99.90
8043;DHT22;4064;48.132;11.366;2022-10-17T07:03:41;11.30;99.90
8043;DHT22;4064;48.132;11.366;2022-10-17T07:06:09;11.90;99.90
8043;DHT22;4064;48.132;11.366;2022-10-17T07:08:37;13.00;99.90
8043;DHT22;4064;48.132;11.366;2022-10-17T07:11:14;14.10;99.90
8043;DHT22;4064;48.132;11.366;2022-10-17T07:13:41;15.30;99.90
8043;DHT22;4064;48.132;11.366;2022-10-17T07:16:07;16.20;99.90
8043;DHT22;4064;48.132;11.366;2022-10-17T07:18:33;17.20;99.90
8043;DHT22;4064;48.132;11.366;2022-10-17T07:20:59;18.00;99.90
8043;DHT22;4064;48.132;11.366;2022-10-17T07:23:25;18.60;99.90
8043;DHT22;4064;48.132;11.366;2022-10-17T07:25:51;19.10;99.90
8043;DHT22;4064;48.132;11.366;2022-10-17T07:28:17;19.00;99.90
8043;DHT22;4064;48.132;11.366;2022-10-17T07:30:43;18.30;99.90
8043;DHT22;4064;48.132;11.366;2022-10-17T07:33:09;17.90;99.90
8043;DHT22;4064;48.132;11.366;2022-10-17T07:35:37;17.80;99.90
8043;DHT22;4064;48.132;11.366;2022-10-17T07:38:02;18.70;99.90
8043;DHT22;4064;48.132;11.366;2022-10-17T07:40:28;19.40;99.90
8043;DHT22;4064;48.132;11.366;2022-10-17T07:42:53;19.90;99.90
8043;DHT22;4064;48.132;11.366;2022-10-17T07:45:20;20.10;99.90
8043;DHT22;4064;48.132;11.366;2022-10-17T07:47:48;20.40;99.90
8043;DHT22;4064;48.132;11.366;2022-10-17T07:50:13;21.00;99.90
8043;DHT22;4064;48.132;11.366;2022-10-17T07:52:39;21.80;98.40
8043;DHT22;4064;48.132;11.366;2022-10-17T07:55:08;22.40;95.60
8043;DHT22;4064;48.132;11.366;2022-10-17T07:57:33;22.70;94.90
8043;DHT22;4064;48.132;11.366;2022-10-17T07:59:59;22.70;95.10
8043;DHT22;4064;48.132;11.366;2022-10-17T08:02:26;22.40;94.70
8043;DHT22;4064;48.132;11.366;2022-10-17T08:04:52;22.50;94.20
8043;DHT22;4064;48.132;11.366;2022-10-17T08:07:19;22.50;93.80
8043;DHT22;4064;48.132;11.366;2022-10-17T08:09:45;22.30;93.50
8043;DHT22;4064;48.132;11.366;2022-10-17T08:12:12;22.40;94.20
8043;DHT22;4064;48.132;11.366;2022-10-17T08:14:39;22.20;93.20
8043;DHT22;4064;48.132;11.366;2022-10-17T08:17:05;21.80;93.40
8043;DHT22;4064;48.132;11.366;2022-10-17T08:19:31;21.60;94.00
8043;DHT22;4064;48.132;11.366;2022-10-17T08:21:56;21.50;94.50
8043;DHT22;4064;48.132;11.366;2022-10-17T08:24:23;21.40;93.80
8043;DHT22;4064;48.132;11.366;2022-10-17T08:26:49;21.30;93.10
8043;DHT22;4064;48.132;11.366;2022-10-17T08:29:15;21.40;93.70
8043;DHT22;4064;48.132;11.366;2022-10-17T08:31:42;21.70;93.60
8043;DHT22;4064;48.132;11.366;2022-10-17T08:34:07;21.80;93.50
8043;DHT22;4064;48.132;11.366;2022-10-17T08:36:33;21.90;92.90
8043;DHT22;4064;48.132;11.366;2022-10-17T08:38:59;22.70;91.90
8043;DHT22;4064;48.132;11.366;2022-10-17T08:44:30;24.30;86.70
8043;DHT22;4064;48.132;11.366;2022-10-17T08:47:00;24.10;85.40
8043;DHT22;4064;48.132;11.366;2022-10-17T08:52:10;24.10;87.20
8043;DHT22;4064;48.132;11.366;2022-10-17T08:54:44;24.20;83.60
8043;DHT22;4064;48.132;11.366;2022-10-17T08:57:15;23.80;80.90
8043;DHT22;4064;48.132;11.366;2022-10-17T08:59:42;23.40;79.40
8043;DHT22;4064;48.132;11.366;2022-10-17T09:02:36;23.20;80.90
8043;DHT22;4064;48.132;11.366;2022-10-17T09:05:23;23.00;78.70
8043;DHT22;4064;48.132;11.366;2022-10-17T09:08:43;23.20;81.00
8043;DHT22;4064;48.132;11.366;2022-10-17T09:11:04;23.10;80.80
8043;DHT22;4064;48.132;11.366;2022-10-17T09:19:27;22.90;81.30
8043;DHT22;4064;48.132;11.366;2022-10-17T09:21:58;22.60;81.80
8043;DHT22;4064;48.132;11.366;2022-10-17T09:27:21;22.20;82.60
8043;DHT22;4064;48.132;11.366;2022-10-17T09:29:49;22.10;83.40
8043;DHT22;4064;48.132;11.366;2022-10-17T09:32:21;22.00;84.20
8043;DHT22;4064;48.132;11.366;2022-10-17T09:34:48;21.90;84.10
8043;DHT22;4064;48.132;11.366;2022-10-17T09:37:15;21.90;84.50
8043;DHT22;4064;48.132;11.366;2022-10-17T09:39:42;21.80;85.10
8043;DHT22;4064;48.132;11.366;2022-10-17T09:42:13;21.60;84.40
8043;DHT22;4064;48.132;11.366;2022-10-17T09:47:43;21.40;86.30
8043;DHT22;4064;48.132;11.366;2022-10-17T09:50:33;21.30;85.70
8043;DHT22;4064;48.132;11.366;2022-10-17T09:55:45;21.30;87.60
8043;DHT22;4064;48.132;11.366;2022-10-17T09:58:13;21.30;85.70
8043;DHT22;4064;48.132;11.366;2022-10-17T10:00:44;21.30;87.30
8043;DHT22;4064;48.132;11.366;2022-10-17T10:03:13;21.40;87.80
8043;DHT22;4064;48.132;11.366;2022-10-17T10:05:40;21.50;86.60
8043;DHT22;4064;48.132;11.366;2022-10-17T10:08:14;21.50;87.20
8043;DHT22;4064;48.132;11.366;2022-10-17T10:10:41;21.80;87.70
8043;DHT22;4064;48.132;11.366;2022-10-17T10:15:41;22.40;85.40
8043;DHT22;4064;48.132;11.366;2022-10-17T10:21:06;23.10;82.80
8043;DHT22;4064;48.132;11.366;2022-10-17T10:23:33;23.20;81.30
8043;DHT22;4064;48.132;11.366;2022-10-17T10:26:02;23.40;80.90
8043;DHT22;4064;48.132;11.366;2022-10-17T10:28:34;23.60;81.00
8043;DHT22;4064;48.132;11.366;2022-10-17T10:31:05;23.70;79.60
8043;DHT22;4064;48.132;11.366;2022-10-17T10:33:34;23.70;80.20
8043;DHT22;4064;48.132;11.366;2022-10-17T10:36:05;23.80;79.50
8043;DHT22;4064;48.132;11.366;2022-10-17T10:38:33;23.80;78.60
8043;DHT22;4064;48.132;11.366;2022-10-17T10:41:08;23.50;77.60
8043;DHT22;4064;48.132;11.366;2022-10-17T10:43:41;23.60;77.70
8043;DHT22;4064;48.132;11.366;2022-10-17T10:46:24;23.50;77.10
8043;DHT22;4064;48.132;11.366;2022-10-17T10:48:59;23.60;74.30
8043;DHT22;4064;48.132;11.366;2022-10-17T10:51:41;23.50;76.60
8043;DHT22;4064;48.132;11.366;2022-10-17T10:54:22;23.60;78.30
8043;DHT22;4064;48.132;11.366;2022-10-17T10:56:55;23.60;77.40
8043;DHT22;4064;48.132;11.366;2022-10-17T11:02:09;23.40;76.60
8043;DHT22;4064;48.132;11.366;2022-10-17T11:04:55;23.40;78.00
8043;DHT22;4064;48.132;11.366;2022-10-17T11:07:44;23.40;78.10
8043;DHT22;4064;48.132;11.366;2022-10-17T11:12:40;23.40;78.10
8043;DHT22;4064;48.132;11.366;2022-10-17T11:17:49;23.50;77.00
8043;DHT22;4064;48.132;11.366;2022-10-17T11:25:44;23.70;76.90
8043;DHT22;4064;48.132;11.366;2022-10-17T11:28:22;23.80;76.00
8043;DHT22;4064;48.132;11.366;2022-10-17T11:31:06;23.80;72.80
8043;DHT22;4064;48.132;11.366;2022-10-17T11:33:45;23.90;74.10
8043;DHT22;4064;48.132;11.366;2022-10-17T11:36:11;24.00;72.80
8043;DHT22;4064;48.132;11.366;2022-10-17T11:41:16;24.20;72.70
8043;DHT22;4064;48.132;11.366;2022-10-17T11:44:33;24.40;72.30
8043;DHT22;4064;48.132;11.366;2022-10-17T11:46:56;24.50;72.80
8043;DHT22;4064;48.132;11.366;2022-10-17T11:49:27;24.70;72.00
8043;DHT22;4064;48.132;11.366;2022-10-17T11:52:06;24.90;69.30
8043;DHT22;4064;48.132;11.366;2022-10-17T11:54:53;25.00;68.00
8043;DHT22;4064;48.132;11.366;2022-10-17T12:00:05;25.40;66.90
8043;DHT22;4064;48.132;11.366;2022-10-17T12:05:23;25.80;65.70
8043;DHT22;4064;48.132;11.366;2022-10-17T12:07:58;26.00;66.20
8043;DHT22;4064;48.132;11.366;2022-10-17T12:10:38;26.20;64.40
8043;DHT22;4064;48.132;11.366;2022-10-17T12:15:51;26.50;63.90
8043;DHT22;4064;48.132;11.366;2022-10-17T12:18:16;26.70;61.20
8043;DHT22;4064;48.132;11.366;2022-10-17T12:20:42;26.60;62.10
8043;DHT22;4064;48.132;11.366;2022-10-17T12:25:48;27.20;60.90
8043;DHT22;4064;48.132;11.366;2022-10-17T12:30:50;27.10;61.50
8043;DHT22;4064;48.132;11.366;2022-10-17T12:33:23;27.10;58.20
8043;DHT22;4064;48.132;11.366;2022-10-17T12:38:44;27.30;61.10
8043;DHT22;4064;48.132;11.366;2022-10-17T12:41:10;27.50;59.90
8043;DHT22;4064;48.132;11.366;2022-10-17T12:43:49;27.60;58.30
8043;DHT22;4064;48.132;11.366;2022-10-17T12:52:16;28.00;55.10
8043;DHT22;4064;48.132;11.366;2022-10-17T13:00:19;28.50;55.30
8043;DHT22;4064;48.132;11.366;2022-10-17T13:02:47;28.50;53.80
8043;DHT22;4064;48.132;11.366;2022-10-17T13:05:35;28.70;53.90
8043;DHT22;4064;48.132;11.366;2022-10-17T13:08:04;28.80;55.00
8043;DHT22;4064;48.132;11.366;2022-10-17T13:10:33;28.60;54.20
8043;DHT22;4064;48.132;11.366;2022-10-17T13:13:11;28.40;54.70
8043;DHT22;4064;48.132;11.366;2022-10-17T13:15:38;28.30;54.40
8043;DHT22;4064;48.132;11.366;2022-10-17T13:18:04;28.10;54.00
8043;DHT22;4064;48.132;11.366;2022-10-17T13:20:31;28.00;54.40
8043;DHT22;4064;48.132;11.366;2022-10-17T13:22:57;27.80;54.20
8043;DHT22;4064;48.132;11.366;2022-10-17T13:25:24;27.60;54.60
8043;DHT22;4064;48.132;11.366;2022-10-17T13:27:50;27.40;55.90
8043;DHT22;4064;48.132;11.366;2022-10-17T13:30:32;27.30;57.10
8043;DHT22;4064;48.132;11.366;2022-10-17T13:32:59;27.00;55.60
8043;DHT22;4064;48.132;11.366;2022-10-17T13:35:31;26.80;56.00
8043;DHT22;4064;48.132;11.366;2022-10-17T13:37:59;26.50;55.80
8043;DHT22;4064;48.132;11.366;2022-10-17T13:40:27;26.20;56.20
8043;DHT22;4064;48.132;11.366;2022-10-17T13:42:55;26.10;56.70
8043;DHT22;4064;48.132;11.366;2022-10-17T13:45:31;26.00;56.50
8043;DHT22;4064;48.132;11.366;2022-10-17T13:48:01;26.00;56.40
8043;DHT22;4064;48.132;11.366;2022-10-17T13:50:32;25.90;57.40
8043;DHT22;4064;48.132;11.366;2022-10-17T13:58:30;26.00;57.20
8043;DHT22;4064;48.132;11.366;2022-10-17T14:00:56;26.20;56.60
8043;DHT22;4064;48.132;11.366;2022-10-17T14:03:22;26.30;57.30
8043;DHT22;4064;48.132;11.366;2022-10-17T14:06:28;26.40;57.40
8043;DHT22;4064;48.132;11.366;2022-10-17T14:08:55;26.60;58.00
8043;DHT22;4064;48.132;11.366;2022-10-17T14:11:42;26.80;57.10
8043;DHT22;4064;48.132;11.366;2022-10-17T14:14:18;26.90;57.50
8043;DHT22;4064;48.132;11.366;2022-10-17T14:16:44;27.00;59.30
8043;DHT22;4064;48.132;11.366;2022-10-17T14:21:48;27.30;57.10
8043;DHT22;4064;48.132;11.366;2022-10-17T14:24:21;27.10;57.40
8043;DHT22;4064;48.132;11.366;2022-10-17T14:26:50;27.00;57.10
8043;DHT22;4064;48.132;11.366;2022-10-17T14:29:21;27.00;57.60
8043;DHT22;4064;48.132;11.366;2022-10-17T14:31:48;27.00;59.20
8043;DHT22;4064;48.132;11.366;2022-10-17T14:34:25;27.00;57.80
8043;DHT22;4064;48.132;11.366;2022-10-17T14:36:52;26.90;58.50
8043;DHT22;4064;48.132;11.366;2022-10-17T14:39:22;26.70;58.60
8043;DHT22;4064;48.132;11.366;2022-10-17T14:41:48;26.40;59.50
8043;DHT22;4064;48.132;11.366;2022-10-17T14:44:28;26.00;60.90
8043;DHT22;4064;48.132;11.366;2022-10-17T14:47:00;25.80;58.60
8043;DHT22;4064;48.132;11.366;2022-10-17T14:49:37;25.70;58.30
8043;DHT22;4064;48.132;11.366;2022-10-17T14:52:24;25.50;59.00
8043;DHT22;4064;48.132;11.366;2022-10-17T14:54:50;25.20;59.40
8043;DHT22;4064;48.132;11.366;2022-10-17T14:57:26;24.90;59.40
8043;DHT22;4064;48.132;11.366;2022-10-17T14:59:53;24.60;58.50
8043;DHT22;4064;48.132;11.366;2022-10-17T15:02:19;24.40;58.40
8043;DHT22;4064;48.132;11.366;2022-10-17T15:04:45;24.20;59.10
8043;DHT22;4064;48.132;11.366;2022-10-17T15:07:15;23.90;60.20
8043;DHT22;4064;48.132;11.366;2022-10-17T15:09:42;23.60;63.00
8043;DHT22;4064;48.132;11.366;2022-10-17T15:12:14;23.30;63.30
8043;DHT22;4064;48.132;11.366;2022-10-17T15:14:40;23.00;64.40
8043;DHT22;4064;48.132;11.366;2022-10-17T15:17:17;22.70;65.50
8043;DHT22;4064;48.132;11.366;2022-10-17T15:19:45;22.50;65.80
8043;DHT22;4064;48.132;11.366;2022-10-17T15:22:11;22.40;66.60
8043;DHT22;4064;48.132;11.366;2022-10-17T15:24:37;22.20;67.80
8043;DHT22;4064;48.132;11.366;2022-10-17T15:27:12;22.00;69.20
8043;DHT22;4064;48.132;11.366;2022-10-17T15:29:38;21.70;70.80
8043;DHT22;4064;48.132;11.366;2022-10-17T15:32:04;21.50;71.60
8043;DHT22;4064;48.132;11.366;2022-10-17T15:34:30;21.30;72.60
8043;DHT22;4064;48.132;11.366;2022-10-17T15:36:55;21.10;73.60
8043;DHT22;4064;48.132;11.366;2022-10-17T15:39:21;20.90;75.20
8043;DHT22;4064;48.132;11.366;2022-10-17T15:41:47;20.80;77.10
8043;DHT22;4064;48.132;11.366;2022-10-17T15:44:13;20.50;78.20
8043;DHT22;4064;48.132;11.366;2022-10-17T15:46:40;20.40;79.80
8043;DHT22;4064;48.132;11.366;2022-10-17T15:49:11;20.10;80.70
8043;DHT22;4064;48.132;11.366;2022-10-17T15:51:37;20.00;82.20
8043;DHT22;4064;48.132;11.366;2022-10-17T15:54:03;19.80;83.10
8043;DHT22;4064;48.132;11.366;2022-10-17T15:56:31;19.70;84.40
8043;DHT22;4064;48.132;11.366;2022-10-17T15:59:01;19.50;85.40
8043;DHT22;4064;48.132;11.366;2022-10-17T16:01:29;19.30;86.00
8043;DHT22;4064;48.132;11.366;2022-10-17T16:03:55;19.20;86.90
8043;DHT22;4064;48.132;11.366;2022-10-17T16:06:22;19.10;87.80
8043;DHT22;4064;48.132;11.366;2022-10-17T16:08:49;18.90;89.00
8043;DHT22;4064;48.132;11.366;2022-10-17T16:11:31;18.80;89.90
8043;DHT22;4064;48.132;11.366;2022-10-17T16:14:03;18.60;90.70
8043;DHT22;4064;48.132;11.366;2022-10-17T16:16:29;18.40;91.20
8043;DHT22;4064;48.132;11.366;2022-10-17T16:18:55;18.30;91.60
8043;DHT22;4064;48.132;11.366;2022-10-17T16:21:25;18.10;92.20
8043;DHT22;4064;48.132;11.366;2022-10-17T16:23:51;18.00;93.00
8043;DHT22;4064;48.132;11.366;2022-10-17T16:26:17;17.90;93.70
8043;DHT22;4064;48.132;11.366;2022-10-17T16:28:43;17.70;94.40
8043;DHT22;4064;48.132;11.366;2022-10-17T16:31:24;17.60;95.20
8043;DHT22;4064;48.132;11.366;2022-10-17T16:33:52;17.50;95.90
8043;DHT22;4064;48.132;11.366;2022-10-17T16:36:18;17.40;96.40
8043;DHT22;4064;48.132;11.366;2022-10-17T16:38:44;17.30;97.30
8043;DHT22;4064;48.132;11.366;2022-10-17T16:41:18;17.20;98.00
8043;DHT22;4064;48.132;11.366;2022-10-17T16:43:46;17.00;99.10
8043;DHT22;4064;48.132;11.366;2022-10-17T16:46:12;16.90;99.90
8043;DHT22;4064;48.132;11.366;2022-10-17T16:48:37;16.80;99.90
8043;DHT22;4064;48.132;11.366;2022-10-17T16:51:03;16.70;99.90
8043;DHT22;4064;48.132;11.366;2022-10-17T16:53:29;16.60;99.90
8043;DHT22;4064;48.132;11.366;2022-10-17T16:56:04;16.50;99.90
8043;DHT22;4064;48.132;11.366;2022-10-17T16:58:30;16.40;99.90
8043;DHT22;4064;48.132;11.366;2022-10-17T17:01:05;16.30;99.90
8043;DHT22;4064;48.132;11.366;2022-10-17T17:03:39;16.20;99.90
8043;DHT22;4064;48.132;11.366;2022-10-17T17:06:05;16.10;99.90
8043;DHT22;4064;48.132;11.366;2022-10-17T17:08:32;16.00;99.90
8043;DHT22;4064;48.132;11.366;2022-10-17T17:10:58;16.00;99.90
8043;DHT22;4064;48.132;11.366;2022-10-17T17:13:25;15.90;99.90
8043;DHT22;4064;48.132;11.366;2022-10-17T17:15:52;15.80;99.90
8043;DHT22;4064;48.132;11.366;2022-10-17T17:18:25;15.70;99.90
8043;DHT22;4064;48.132;11.366;2022-10-17T17:20:57;15.70;99.90
8043;DHT22;4064;48.132;11.366;2022-10-17T17:23:22;15.50;99.90
8043;DHT22;4064;48.132;11.366;2022-10-17T17:25:48;15.50;99.90
8043;DHT22;4064;48.132;11.366;2022-10-17T17:28:15;15.40;99.90
8043;DHT22;4064;48.132;11.366;2022-10-17T17:30:40;15.30;99.90
8043;DHT22;4064;48.132;11.366;2022-10-17T17:33:06;15.30;99.90
8043;DHT22;4064;48.132;11.366;2022-10-17T17:35:32;15.30;99.90
8043;DHT22;4064;48.132;11.366;2022-10-17T17:37:57;15.20;99.90
8043;DHT22;4064;48.132;11.366;2022-10-17T17:40:23;15.20;99.90
8043;DHT22;4064;48.132;11.366;2022-10-17T17:42:49;15.10;99.90
8043;DHT22;4064;48.132;11.366;2022-10-17T17:45:14;15.00;99.90